ENXO weather

Ringhorne Platform
Norway

Public forecast

Using degrees Celsius for public forecast. Weather courtesy of forecast.io.

METAR (pilot weather report)

Closest report is Ula Platform, 15.4 nm (28.4 km) SE. Retrieved 2019/05/23 02:20 UTC (26 minutes ago):

ENLA 230220Z AUTO 25027KT 9999NDV -RA SCT008/// BKN039/// BKN052/// 10/09 Q1008 W///S4

TAF (pilot weather forecast)

Closest forecast is Oseberg A Platform, 74.4 nm (137.8 km) N. Retrieved 2019/05/23 03:57 UTC (0 seconds ago):

TAF TAF ENOA 230200Z 2303/2403 17020KT 9999 BKN008 BECMG 2303/2306 11020KT SCT012 BKN018 PROB30 TEMPO 2309/2403 SHRA BKN009 SCT018CB